Time;durP1;ratioP1;P1;durP2;ratioP2;P2;SDS_P1;SDS_P2;PMS_P1;PMS_P2;Temp;Humidity;BMP_temperature;BMP_pressure;BME280_temperature;BME280_humidity;BME280_pressure;Samples;Min_cycle;Max_cycle;Signal;HPM_P1;HPM_P2
2024/02/25 00:02:03;;;;;;;;;;;14.00;66.90;;;;;;5032061;28;19925;-71
2024/02/25 00:04:28;;;;;;;;;;;14.00;66.20;;;;;;5032346;28;20413;-73
2024/02/25 00:06:54;;;;;;;;;;;14.00;66.60;;;;;;5032128;28;19909;-75
2024/02/25 00:09:19;;;;;;;;;;;13.90;66.90;;;;;;5032018;28;19909;-75
2024/02/25 00:11:45;;;;;;;;;;;14.10;67.00;;;;;;5031967;28;20283;-75
2024/02/25 00:14:10;;;;;;;;;;;14.00;66.80;;;;;;5031990;28;19963;-75
2024/02/25 00:16:36;;;;;;;;;;;14.00;66.40;;;;;;5031921;28;19945;-75
2024/02/25 00:19:02;;;;;;;;;;;13.90;66.80;;;;;;5031984;28;19909;-75
2024/02/25 00:21:28;;;;;;;;;;;14.00;67.10;;;;;;5032363;28;20326;-75
2024/02/25 00:23:53;;;;;;;;;;;14.10;67.00;;;;;;5031768;28;19909;-75
2024/02/25 00:26:19;;;;;;;;;;;14.00;66.70;;;;;;5031889;28;20310;-75
2024/02/25 00:28:45;;;;;;;;;;;14.00;66.70;;;;;;5035144;28;19916;-75
2024/02/25 00:31:10;;;;;;;;;;;13.80;66.40;;;;;;5017870;28;20008;-75
2024/02/25 00:33:36;;;;;;;;;;;14.10;66.70;;;;;;5035523;28;20016;-75
2024/02/25 00:36:02;;;;;;;;;;;14.40;67.00;;;;;;5035748;28;19956;-75
2024/02/25 00:38:27;;;;;;;;;;;14.00;66.40;;;;;;5035393;28;19913;-75
2024/02/25 00:40:53;;;;;;;;;;;14.00;66.80;;;;;;5035283;28;19921;-75
2024/02/25 00:43:18;;;;;;;;;;;14.00;66.10;;;;;;5035106;28;19921;-75
2024/02/25 00:45:44;;;;;;;;;;;14.10;66.70;;;;;;5035256;28;19909;-76
2024/02/25 00:48:09;;;;;;;;;;;14.00;66.60;;;;;;5035269;28;20056;-75
2024/02/25 00:50:34;;;;;;;;;;;14.10;66.80;;;;;;5035699;28;19913;-75
2024/02/25 00:53:00;;;;;;;;;;;14.20;66.80;;;;;;5035127;28;19909;-75
2024/02/25 00:55:25;;;;;;;;;;;14.00;66.60;;;;;;5034764;28;19909;-75
2024/02/25 00:57:51;;;;;;;;;;;14.10;66.60;;;;;;5034942;28;20454;-76
2024/02/25 01:00:19;;;;;;;;;;;14.00;66.60;;;;;;5035218;28;19936;-76
2024/02/25 01:02:46;;;;;;;;;;;14.10;66.00;;;;;;5034994;28;20320;-76
2024/02/25 01:05:12;;;;;;;;;;;14.00;66.60;;;;;;5035354;28;20451;-75
2024/02/25 01:07:38;;;;;;;;;;;14.10;66.60;;;;;;5035165;28;20260;-76
2024/02/25 01:10:07;;;;;;;;;;;14.20;66.50;;;;;;5034843;28;20042;-75
2024/02/25 01:12:33;;;;;;;;;;;14.10;62.10;;;;;;5034714;28;19917;-75
2024/02/25 01:14:59;;;;;;;;;;;14.00;66.60;;;;;;5034611;28;19913;-75
2024/02/25 01:17:25;;;;;;;;;;;14.10;66.70;;;;;;5034682;28;19913;-75
2024/02/25 01:19:51;;;;;;;;;;;14.00;66.50;;;;;;5035038;28;19964;-75
2024/02/25 01:22:16;;;;;;;;;;;14.00;66.40;;;;;;5034637;28;20000;-75
2024/02/25 01:24:42;;;;;;;;;;;14.30;66.70;;;;;;5034617;28;19998;-75
2024/02/25 01:27:07;;;;;;;;;;;14.10;66.80;;;;;;5034831;28;19913;-75
2024/02/25 01:29:33;;;;;;;;;;;14.10;66.60;;;;;;5034550;28;19921;-75
2024/02/25 01:31:58;;;;;;;;;;;14.30;66.50;;;;;;5034442;28;19909;-74
2024/02/25 01:34:28;;;;;;;;;;;14.10;66.50;;;;;;5034720;28;19909;-75
2024/02/25 01:36:53;;;;;;;;;;;14.10;62.60;;;;;;5034400;28;20004;-75
2024/02/25 01:39:21;;;;;;;;;;;14.00;66.50;;;;;;5033796;28;19953;-75
2024/02/25 01:41:46;;;;;;;;;;;14.10;66.30;;;;;;5034127;28;19913;-75
2024/02/25 01:44:12;;;;;;;;;;;14.10;66.80;;;;;;5034215;28;20445;-75
2024/02/25 01:46:39;;;;;;;;;;;14.00;66.70;;;;;;5034168;28;19967;-75
2024/02/25 01:49:05;;;;;;;;;;;14.00;66.60;;;;;;5034536;28;19913;-74
2024/02/25 01:51:31;;;;;;;;;;;14.00;66.60;;;;;;5034384;28;20264;-75
2024/02/25 01:53:56;;;;;;;;;;;14.00;67.00;;;;;;5033983;28;19924;-75
2024/02/25 01:56:22;;;;;;;;;;;14.00;67.10;;;;;;5034214;28;20291;-74
2024/02/25 01:58:47;;;;;;;;;;;14.00;67.00;;;;;;5033856;28;20007;-75
2024/02/25 02:01:14;;;;;;;;;;;14.10;67.10;;;;;;5033784;28;19921;-75
2024/02/25 02:03:40;;;;;;;;;;;14.00;67.20;;;;;;5033844;28;19924;-75
2024/02/25 02:06:05;;;;;;;;;;;14.00;66.40;;;;;;5034286;28;20394;-75
2024/02/25 02:08:31;;;;;;;;;;;14.00;66.80;;;;;;5033683;28;20005;-75
2024/02/25 02:10:56;;;;;;;;;;;14.10;67.10;;;;;;5033777;28;19909;-75
2024/02/25 02:13:22;;;;;;;;;;;14.00;67.10;;;;;;5033573;28;19971;-75
2024/02/25 02:15:48;;;;;;;;;;;14.00;67.00;;;;;;5033865;28;19920;-75
2024/02/25 02:18:13;;;;;;;;;;;14.00;67.00;;;;;;5033540;28;19909;-75
2024/02/25 02:20:43;;;;;;;;;;;14.10;67.20;;;;;;5033787;28;19917;-75
2024/02/25 02:23:09;;;;;;;;;;;14.00;67.50;;;;;;5033465;28;19913;-75
2024/02/25 02:25:34;;;;;;;;;;;14.10;67.50;;;;;;5033467;28;19916;-75
2024/02/25 02:28:00;;;;;;;;;;;14.00;67.20;;;;;;5033435;28;19999;-74
2024/02/25 02:30:25;;;;;;;;;;;14.10;67.20;;;;;;5033365;28;19909;-75
2024/02/25 02:32:51;;;;;;;;;;;14.10;67.00;;;;;;5033241;28;19909;-75
2024/02/25 02:35:16;;;;;;;;;;;14.10;66.80;;;;;;5033648;28;19909;-75
2024/02/25 02:37:42;;;;;;;;;;;14.20;67.30;;;;;;5033181;28;19909;-75
2024/02/25 02:40:07;;;;;;;;;;;14.10;67.40;;;;;;5033351;28;19924;-75
2024/02/25 02:42:34;;;;;;;;;;;14.10;66.80;;;;;;5032777;28;19967;-75
2024/02/25 02:45:00;;;;;;;;;;;14.10;67.00;;;;;;5033138;28;19964;-75
2024/02/25 02:47:26;;;;;;;;;;;14.10;67.00;;;;;;5033092;28;19910;-74
2024/02/25 02:49:51;;;;;;;;;;;14.10;67.30;;;;;;5032180;28;19915;-75
2024/02/25 02:52:17;;;;;;;;;;;14.10;66.80;;;;;;5015164;28;19920;-75
2024/02/25 02:54:42;;;;;;;;;;;14.10;67.30;;;;;;5032931;28;19913;-74
2024/02/25 02:57:08;;;;;;;;;;;14.10;67.40;;;;;;5032753;28;19963;-75
2024/02/25 02:59:33;;;;;;;;;;;14.10;67.30;;;;;;5032967;28;19909;-74
2024/02/25 03:01:59;;;;;;;;;;;14.40;67.60;;;;;;5032748;28;19982;-75
2024/02/25 03:04:27;;;;;;;;;;;14.00;67.20;;;;;;5033139;28;19909;-71
2024/02/25 03:06:54;;;;;;;;;;;14.10;67.50;;;;;;5032784;28;19956;-71
2024/02/25 03:09:20;;;;;;;;;;;14.10;67.20;;;;;;5032828;28;20338;-71
2024/02/25 03:11:46;;;;;;;;;;;14.10;67.10;;;;;;5032726;28;19951;-71
2024/02/25 03:14:11;;;;;;;;;;;14.10;67.50;;;;;;5032598;28;20379;-71
2024/02/25 03:16:40;;;;;;;;;;;14.10;66.80;;;;;;5032595;28;19920;-71
2024/02/25 03:19:05;;;;;;;;;;;14.00;62.40;;;;;;5032503;28;19916;-71
2024/02/25 03:21:31;;;;;;;;;;;14.00;67.40;;;;;;5032285;28;19917;-71
2024/02/25 03:23:57;;;;;;;;;;;14.00;67.50;;;;;;5032632;28;19913;-71
2024/02/25 03:26:23;;;;;;;;;;;14.10;67.20;;;;;;5032574;28;19909;-71
2024/02/25 03:28:48;;;;;;;;;;;14.10;67.00;;;;;;5032601;28;19921;-71
2024/02/25 03:31:14;;;;;;;;;;;14.20;66.80;;;;;;5033085;28;19964;-71
2024/02/25 03:33:40;;;;;;;;;;;14.10;67.60;;;;;;5032204;28;19909;-71
2024/02/25 03:36:05;;;;;;;;;;;14.10;67.10;;;;;;5032367;28;19916;-71
2024/02/25 03:38:31;;;;;;;;;;;14.10;66.70;;;;;;5032424;28;20326;-71
2024/02/25 03:40:57;;;;;;;;;;;14.30;67.30;;;;;;5032216;28;19917;-71
2024/02/25 03:43:23;;;;;;;;;;;14.10;66.90;;;;;;5031874;28;19921;-71
2024/02/25 03:45:48;;;;;;;;;;;14.00;67.30;;;;;;5032200;28;19928;-71
2024/02/25 03:48:14;;;;;;;;;;;14.00;67.20;;;;;;5032165;28;19940;-71
2024/02/25 03:50:39;;;;;;;;;;;14.10;67.30;;;;;;5032139;28;19909;-71
2024/02/25 03:53:05;;;;;;;;;;;14.10;67.30;;;;;;5032094;28;19910;-71
2024/02/25 03:55:31;;;;;;;;;;;14.10;67.10;;;;;;5032057;28;19909;-71
2024/02/25 03:57:56;;;;;;;;;;;14.00;67.00;;;;;;5032040;28;19910;-71
2024/02/25 04:00:23;;;;;;;;;;;14.10;66.90;;;;;;5032460;28;19917;-75
2024/02/25 04:02:48;;;;;;;;;;;14.10;67.50;;;;;;5035881;28;19909;-74
2024/02/25 04:05:14;;;;;;;;;;;14.10;67.30;;;;;;5036163;28;19920;-75
2024/02/25 04:07:43;;;;;;;;;;;14.10;67.30;;;;;;5035983;28;20380;-75
2024/02/25 04:10:09;;;;;;;;;;;14.10;62.60;;;;;;5036031;28;19996;-75
2024/02/25 04:12:35;;;;;;;;;;;14.00;66.90;;;;;;5035978;28;19913;-75
2024/02/25 04:15:01;;;;;;;;;;;14.10;67.50;;;;;;5035924;28;19909;-75
2024/02/25 04:17:26;;;;;;;;;;;14.00;67.20;;;;;;5035823;28;19909;-75
2024/02/25 04:19:52;;;;;;;;;;;14.10;67.00;;;;;;5035696;28;19972;-75
2024/02/25 04:22:18;;;;;;;;;;;14.00;67.00;;;;;;5035770;28;19920;-75
2024/02/25 04:24:43;;;;;;;;;;;14.10;67.50;;;;;;5035670;28;19916;-75
2024/02/25 04:27:09;;;;;;;;;;;14.10;67.30;;;;;;5035644;28;20346;-75
2024/02/25 04:29:38;;;;;;;;;;;14.10;66.70;;;;;;5036127;28;19935;-71
2024/02/25 04:32:03;;;;;;;;;;;14.10;62.60;;;;;;5035607;28;20491;-71
2024/02/25 04:34:29;;;;;;;;;;;14.10;66.10;;;;;;5035526;28;19955;-71
2024/02/25 04:36:54;;;;;;;;;;;14.00;67.50;;;;;;5035516;28;20319;-71
2024/02/25 04:39:20;;;;;;;;;;;14.10;67.50;;;;;;5017848;28;19909;-71
2024/02/25 04:41:46;;;;;;;;;;;14.10;66.80;;;;;;5035295;28;20402;-71
2024/02/25 04:44:11;;;;;;;;;;;14.10;68.20;;;;;;5035302;28;19914;-71
2024/02/25 04:46:38;;;;;;;;;;;14.10;67.50;;;;;;5017561;28;20411;-71
2024/02/25 04:49:04;;;;;;;;;;;14.10;66.80;;;;;;5035824;28;19971;-71
2024/02/25 04:51:32;;;;;;;;;;;14.10;67.10;;;;;;5035127;28;20327;-71
2024/02/25 04:53:58;;;;;;;;;;;14.10;67.20;;;;;;5035346;28;19913;-72
2024/02/25 04:56:27;;;;;;;;;;;14.30;67.40;;;;;;5018311;28;19955;-71
2024/02/25 04:58:53;;;;;;;;;;;14.10;63.50;;;;;;5034998;28;19956;-72
2024/02/25 05:01:19;;;;;;;;;;;14.20;67.30;;;;;;5035253;28;20385;-71
2024/02/25 05:03:45;;;;;;;;;;;14.10;67.20;;;;;;5035245;28;19916;-72
2024/02/25 05:06:11;;;;;;;;;;;14.20;67.40;;;;;;5035274;28;19909;-71
2024/02/25 05:08:37;;;;;;;;;;;14.10;67.70;;;;;;5034918;28;19913;-71
2024/02/25 05:11:02;;;;;;;;;;;14.10;67.40;;;;;;5034933;28;20228;-72
2024/02/25 05:13:28;;;;;;;;;;;14.10;66.70;;;;;;5034001;28;20008;-71
2024/02/25 05:15:54;;;;;;;;;;;14.10;67.40;;;;;;5034720;28;19963;-71
2024/02/25 05:18:21;;;;;;;;;;;14.10;67.20;;;;;;5034711;28;20058;-71
2024/02/25 05:20:46;;;;;;;;;;;14.00;66.90;;;;;;5034546;28;20040;-71
2024/02/25 05:23:12;;;;;;;;;;;14.10;67.60;;;;;;5034629;28;19913;-71
2024/02/25 05:25:37;;;;;;;;;;;14.30;66.90;;;;;;5035309;28;20322;-75
2024/02/25 05:28:03;;;;;;;;;;;14.10;67.50;;;;;;5034523;28;19933;-75
2024/02/25 05:30:29;;;;;;;;;;;14.10;66.70;;;;;;5034602;28;19910;-75
2024/02/25 05:32:55;;;;;;;;;;;14.00;67.60;;;;;;5034403;28;20366;-74
2024/02/25 05:35:20;;;;;;;;;;;14.00;67.50;;;;;;5034841;28;20286;-75
2024/02/25 05:37:46;;;;;;;;;;;14.00;67.40;;;;;;5034516;28;19909;-75
2024/02/25 05:40:12;;;;;;;;;;;14.00;68.20;;;;;;5034262;28;19917;-75
2024/02/25 05:42:37;;;;;;;;;;;14.10;67.40;;;;;;5034240;28;20314;-75
2024/02/25 05:45:03;;;;;;;;;;;14.10;67.90;;;;;;5034537;28;19944;-75
2024/02/25 05:47:29;;;;;;;;;;;14.10;67.20;;;;;;5034296;28;19954;-75
2024/02/25 05:49:55;;;;;;;;;;;14.10;68.10;;;;;;5034091;28;19910;-75
2024/02/25 05:52:21;;;;;;;;;;;14.10;67.80;;;;;;5034213;28;19916;-75
2024/02/25 05:54:46;;;;;;;;;;;14.10;68.70;;;;;;5034658;28;19952;-74
2024/02/25 05:57:12;;;;;;;;;;;14.10;67.90;;;;;;5034262;28;20291;-74
2024/02/25 05:59:37;;;;;;;;;;;14.20;67.80;;;;;;5033943;28;19913;-75
2024/02/25 06:02:03;;;;;;;;;;;14.10;67.80;;;;;;5033875;28;19932;-75
2024/02/25 06:04:29;;;;;;;;;;;14.10;67.90;;;;;;5033967;28;19916;-75
2024/02/25 06:06:56;;;;;;;;;;;14.20;67.90;;;;;;5033437;28;20465;-75
2024/02/25 06:09:22;;;;;;;;;;;14.20;68.00;;;;;;5033800;28;20460;-74
2024/02/25 06:11:48;;;;;;;;;;;13.70;67.70;;;;;;5033649;28;19959;-75
2024/02/25 06:14:14;;;;;;;;;;;14.10;67.60;;;;;;5033645;28;19909;-75
2024/02/25 06:16:40;;;;;;;;;;;14.20;68.20;;;;;;5033622;28;19910;-75
2024/02/25 06:19:06;;;;;;;;;;;14.20;68.20;;;;;;5033503;28;20008;-75
2024/02/25 06:21:32;;;;;;;;;;;14.20;67.90;;;;;;5033484;28;20358;-75
2024/02/25 06:23:57;;;;;;;;;;;14.30;68.00;;;;;;5033961;28;20003;-75
2024/02/25 06:26:23;;;;;;;;;;;14.30;67.80;;;;;;5033487;28;19932;-75
2024/02/25 06:28:49;;;;;;;;;;;14.20;67.60;;;;;;5033473;28;19999;-75
2024/02/25 06:31:14;;;;;;;;;;;14.20;68.10;;;;;;5033708;28;20265;-75
2024/02/25 06:33:40;;;;;;;;;;;14.20;67.90;;;;;;5033359;28;19971;-74
2024/02/25 06:36:06;;;;;;;;;;;14.20;67.80;;;;;;5033253;28;19954;-74
2024/02/25 06:38:32;;;;;;;;;;;14.20;67.40;;;;;;5033319;28;19916;-75
2024/02/25 06:40:57;;;;;;;;;;;14.20;67.70;;;;;;5033144;28;19921;-75
2024/02/25 06:43:24;;;;;;;;;;;14.20;67.40;;;;;;5032786;28;19921;-75
2024/02/25 06:45:50;;;;;;;;;;;14.40;68.00;;;;;;5033057;28;20379;-75
2024/02/25 06:48:15;;;;;;;;;;;14.10;67.90;;;;;;5032849;28;19916;-75
2024/02/25 06:50:41;;;;;;;;;;;14.20;67.10;;;;;;5033516;28;20357;-75
2024/02/25 06:53:06;;;;;;;;;;;14.20;68.00;;;;;;5032808;28;20414;-74
2024/02/25 06:55:32;;;;;;;;;;;14.10;67.80;;;;;;5032273;28;19909;-74
2024/02/25 06:57:57;;;;;;;;;;;14.20;67.90;;;;;;5032782;28;19999;-74
2024/02/25 07:00:23;;;;;;;;;;;14.20;67.80;;;;;;5032683;28;20257;-75
2024/02/25 07:02:49;;;;;;;;;;;14.30;67.80;;;;;;5032788;28;19933;-75
2024/02/25 07:05:15;;;;;;;;;;;14.30;67.80;;;;;;5032687;28;20339;-75
2024/02/25 07:07:40;;;;;;;;;;;14.30;67.50;;;;;;5032623;28;19941;-75
2024/02/25 07:10:06;;;;;;;;;;;14.20;67.80;;;;;;5032619;28;20544;-75
2024/02/25 07:12:32;;;;;;;;;;;14.20;66.40;;;;;;5032395;28;20367;-75
2024/02/25 07:14:57;;;;;;;;;;;12.90;66.90;;;;;;5032507;28;19913;-75
2024/02/25 07:17:23;;;;;;;;;;;14.30;67.90;;;;;;5032401;28;20074;-75
2024/02/25 07:19:48;;;;;;;;;;;14.30;67.20;;;;;;5032804;28;19917;-75
2024/02/25 07:22:14;;;;;;;;;;;14.30;67.90;;;;;;5032341;28;19932;-75
2024/02/25 07:24:40;;;;;;;;;;;14.30;67.90;;;;;;5032263;28;20363;-75
2024/02/25 07:27:06;;;;;;;;;;;14.30;67.80;;;;;;5032284;28;19916;-75
2024/02/25 07:29:32;;;;;;;;;;;14.30;68.50;;;;;;5032241;28;20330;-75
2024/02/25 07:31:58;;;;;;;;;;;14.30;67.60;;;;;;5032279;28;19917;-75
2024/02/25 07:34:24;;;;;;;;;;;14.30;67.90;;;;;;5032114;28;19909;-75
2024/02/25 07:36:49;;;;;;;;;;;14.30;67.90;;;;;;5031726;28;19932;-75
2024/02/25 07:39:15;;;;;;;;;;;14.30;67.60;;;;;;5032139;28;19924;-75
2024/02/25 07:41:40;;;;;;;;;;;14.30;67.10;;;;;;5032047;28;20016;-75
2024/02/25 07:44:06;;;;;;;;;;;14.30;67.60;;;;;;5031932;28;19926;-75
2024/02/25 07:46:31;;;;;;;;;;;14.30;67.70;;;;;;5014254;28;19913;-75
2024/02/25 07:48:58;;;;;;;;;;;14.50;67.60;;;;;;5032607;28;19940;-75
2024/02/25 07:51:24;;;;;;;;;;;14.30;67.90;;;;;;5032089;28;19917;-75
2024/02/25 07:53:50;;;;;;;;;;;14.40;67.40;;;;;;5031944;28;19909;-75
2024/02/25 07:56:19;;;;;;;;;;;14.30;67.40;;;;;;5031943;28;20043;-75
2024/02/25 07:58:44;;;;;;;;;;;14.30;62.90;;;;;;5031956;28;19916;-75
2024/02/25 08:01:10;;;;;;;;;;;14.30;67.50;;;;;;5031899;28;19917;-75
2024/02/25 08:03:36;;;;;;;;;;;14.30;67.50;;;;;;5031912;28;20283;-75
2024/02/25 08:06:01;;;;;;;;;;;14.30;67.00;;;;;;5031850;28;19909;-75
2024/02/25 08:08:27;;;;;;;;;;;14.20;66.80;;;;;;5031821;28;19975;-75
2024/02/25 08:10:52;;;;;;;;;;;14.30;67.60;;;;;;5031798;28;19996;-75
2024/02/25 08:13:18;;;;;;;;;;;14.40;68.10;;;;;;5031622;28;19917;-75
2024/02/25 08:15:43;;;;;;;;;;;14.30;66.80;;;;;;5032216;28;19916;-75
2024/02/25 08:18:09;;;;;;;;;;;14.30;67.60;;;;;;5031735;28;19909;-75
2024/02/25 08:20:34;;;;;;;;;;;14.40;67.30;;;;;;5031539;28;19932;-75
2024/02/25 08:23:02;;;;;;;;;;;14.40;67.60;;;;;;5031632;28;19909;-75
2024/02/25 08:25:27;;;;;;;;;;;14.40;67.20;;;;;;5031720;28;19913;-75
2024/02/25 08:27:53;;;;;;;;;;;14.30;67.40;;;;;;5032006;28;19913;-75
2024/02/25 08:30:20;;;;;;;;;;;14.40;67.30;;;;;;5031699;28;19948;-75
2024/02/25 08:32:45;;;;;;;;;;;14.30;66.80;;;;;;5031667;28;19917;-75
2024/02/25 08:35:11;;;;;;;;;;;14.30;67.40;;;;;;5031674;28;19917;-74
2024/02/25 08:37:37;;;;;;;;;;;14.40;67.40;;;;;;5031763;28;19920;-74
2024/02/25 08:40:03;;;;;;;;;;;14.40;67.70;;;;;;4997433;28;20340;-75
2024/02/25 08:42:28;;;;;;;;;;;14.30;67.10;;;;;;5031288;28;19921;-76
2024/02/25 08:44:54;;;;;;;;;;;14.30;67.30;;;;;;5032108;28;19980;-78
2024/02/25 08:47:19;;;;;;;;;;;14.40;67.60;;;;;;5031602;28;20416;-75
2024/02/25 08:49:45;;;;;;;;;;;14.30;67.40;;;;;;5016993;28;19909;-79
2024/02/25 08:52:10;;;;;;;;;;;14.40;67.60;;;;;;5035546;28;19909;-76
2024/02/25 08:54:38;;;;;;;;;;;14.40;67.40;;;;;;5035250;28;19915;-82
2024/02/25 08:57:05;;;;;;;;;;;14.30;67.20;;;;;;5035273;28;19995;-82
2024/02/25 08:59:31;;;;;;;;;;;14.30;67.30;;;;;;5034973;28;19971;-80
2024/02/25 09:01:56;;;;;;;;;;;14.40;67.50;;;;;;5035158;28;20003;-85
2024/02/25 09:04:27;;;;;;;;;;;14.40;67.30;;;;;;5035088;28;19914;-85
2024/02/25 09:06:59;;;;;;;;;;;14.40;67.50;;;;;;5041525;28;19912;-80
2024/02/25 09:09:26;;;;;;;;;;;14.30;63.00;;;;;;5035056;28;19909;-82
2024/02/25 09:11:52;;;;;;;;;;;14.30;66.70;;;;;;5034708;28;19909;-77
2024/02/25 09:14:17;;;;;;;;;;;14.30;67.50;;;;;;5035420;28;19913;-81
2024/02/25 09:16:43;;;;;;;;;;;14.50;67.50;;;;;;5034835;28;19913;-74
2024/02/25 09:19:09;;;;;;;;;;;14.40;67.30;;;;;;5034654;28;20003;-74
2024/02/25 09:21:34;;;;;;;;;;;14.40;67.40;;;;;;5034526;28;19960;-74
2024/02/25 09:24:00;;;;;;;;;;;14.40;67.40;;;;;;5034512;28;20586;-76
2024/02/25 09:26:26;;;;;;;;;;;14.30;67.50;;;;;;5034504;28;19909;-74
2024/02/25 09:28:51;;;;;;;;;;;14.30;67.40;;;;;;5034348;28;19919;-74
2024/02/25 09:31:18;;;;;;;;;;;14.50;67.20;;;;;;5034411;28;19913;-74
2024/02/25 09:33:44;;;;;;;;;;;14.40;68.20;;;;;;5034444;28;19963;-74
2024/02/25 09:36:09;;;;;;;;;;;14.40;67.40;;;;;;5034487;28;19913;-74
2024/02/25 09:38:35;;;;;;;;;;;14.40;67.60;;;;;;5034250;28;19932;-73
2024/02/25 09:41:01;;;;;;;;;;;14.40;67.50;;;;;;5034357;28;19917;-73
2024/02/25 09:43:27;;;;;;;;;;;14.30;67.00;;;;;;5033977;28;19921;-71
2024/02/25 09:45:55;;;;;;;;;;;14.40;67.50;;;;;;5034083;28;20253;-74
2024/02/25 09:48:21;;;;;;;;;;;14.40;67.90;;;;;;5034090;28;19910;-75
2024/02/25 09:50:50;;;;;;;;;;;14.40;67.40;;;;;;5034131;28;19916;-75
2024/02/25 09:53:16;;;;;;;;;;;14.50;66.80;;;;;;5033977;28;19956;-76
2024/02/25 09:55:44;;;;;;;;;;;14.50;67.40;;;;;;5034136;28;19913;-74
2024/02/25 09:58:10;;;;;;;;;;;14.50;62.20;;;;;;5033758;28;19909;-75
2024/02/25 10:00:35;;;;;;;;;;;14.60;66.90;;;;;;5033293;28;20355;-73
2024/02/25 10:03:01;;;;;;;;;;;14.70;66.90;;;;;;5033698;28;19916;-77
2024/02/25 10:05:26;;;;;;;;;;;14.70;66.50;;;;;;5034261;28;19931;-75
2024/02/25 10:08:03;;;;;;;;;;;14.80;66.10;;;;;;5034355;28;19913;-77
2024/02/25 10:10:32;;;;;;;;;;;14.70;62.00;;;;;;5034901;28;20007;-77
2024/02/25 10:12:59;;;;;;;;;;;14.80;66.80;;;;;;5034057;28;19920;-77
2024/02/25 10:15:25;;;;;;;;;;;14.80;66.90;;;;;;5034445;28;20279;-77
2024/02/25 10:17:51;;;;;;;;;;;14.90;66.80;;;;;;5034163;28;19916;-78
2024/02/25 10:20:16;;;;;;;;;;;14.80;67.00;;;;;;5038369;28;20387;-80
2024/02/25 10:22:42;;;;;;;;;;;16.00;67.50;;;;;;5034031;28;20000;-78
2024/02/25 10:25:07;;;;;;;;;;;14.80;67.30;;;;;;5033753;28;19920;-75
2024/02/25 10:27:33;;;;;;;;;;;14.30;66.80;;;;;;5033670;28;20264;-75
2024/02/25 10:29:59;;;;;;;;;;;15.00;67.30;;;;;;5033647;28;20323;-75
2024/02/25 10:32:24;;;;;;;;;;;14.90;67.40;;;;;;5033345;28;20391;-75
2024/02/25 10:34:54;;;;;;;;;;;15.00;67.10;;;;;;5033576;28;19916;-80
2024/02/25 10:37:23;;;;;;;;;;;14.90;66.60;;;;;;5033286;28;19978;-75
2024/02/25 10:39:52;;;;;;;;;;;15.00;67.10;;;;;;5033211;28;19913;-75
2024/02/25 10:42:21;;;;;;;;;;;15.20;66.30;;;;;;5033059;28;20307;-75
2024/02/25 10:44:46;;;;;;;;;;;15.50;67.20;;;;;;5033072;28;19935;-75
2024/02/25 10:47:14;;;;;;;;;;;15.30;66.60;;;;;;5032990;28;19909;-75
2024/02/25 10:49:42;;;;;;;;;;;15.90;66.80;;;;;;5032885;28;19936;-75
2024/02/25 10:52:09;;;;;;;;;;;15.00;66.30;;;;;;5032902;28;19984;-75
2024/02/25 10:54:36;;;;;;;;;;;15.50;66.30;;;;;;5015376;28;19909;-75
2024/02/25 10:57:03;;;;;;;;;;;15.40;65.90;;;;;;5033172;28;20351;-76
2024/02/25 10:59:29;;;;;;;;;;;15.60;65.00;;;;;;5033303;28;19941;-75
2024/02/25 11:01:57;;;;;;;;;;;15.50;66.00;;;;;;5033198;28;19917;-76
2024/02/25 11:04:23;;;;;;;;;;;15.50;66.40;;;;;;5032803;28;19909;-75
2024/02/25 11:06:49;;;;;;;;;;;15.50;66.40;;;;;;5032809;28;19916;-76
2024/02/25 11:09:15;;;;;;;;;;;15.40;66.50;;;;;;5033075;28;19915;-76
2024/02/25 11:11:43;;;;;;;;;;;15.70;67.10;;;;;;5032205;28;19909;-76
2024/02/25 11:14:15;;;;;;;;;;;15.40;62.50;;;;;;5032947;28;19916;-75
2024/02/25 11:16:47;;;;;;;;;;;15.70;62.80;;;;;;5032754;28;19909;-76
2024/02/25 11:19:13;;;;;;;;;;;15.40;62.40;;;;;;5032812;28;19945;-76
2024/02/25 11:21:39;;;;;;;;;;;15.40;67.40;;;;;;5032290;28;19917;-75
2024/02/25 11:24:06;;;;;;;;;;;15.40;67.30;;;;;;5032463;28;19981;-76
2024/02/25 11:26:35;;;;;;;;;;;15.40;67.00;;;;;;5032634;28;20008;-78
2024/02/25 11:29:19;;;;;;;;;;;15.50;62.60;;;;;;5032975;28;19910;-76
2024/02/25 11:31:49;;;;;;;;;;;15.70;62.20;;;;;;5032377;28;19916;-74
2024/02/25 11:34:19;;;;;;;;;;;15.70;61.90;;;;;;5032303;28;19910;-75
2024/02/25 11:36:47;;;;;;;;;;;15.70;66.60;;;;;;5032266;28;19956;-74
2024/02/25 11:39:13;;;;;;;;;;;15.70;66.70;;;;;;5032230;28;20414;-74
2024/02/25 11:41:39;;;;;;;;;;;15.80;66.40;;;;;;5031984;28;19917;-75
2024/02/25 11:44:06;;;;;;;;;;;15.90;67.00;;;;;;5031957;28;19921;-75
2024/02/25 11:46:31;;;;;;;;;;;15.80;66.30;;;;;;5032085;28;19910;-75
2024/02/25 11:48:57;;;;;;;;;;;15.90;66.80;;;;;;5032245;28;20167;-76
2024/02/25 11:51:23;;;;;;;;;;;15.90;66.90;;;;;;5032121;28;19917;-77
2024/02/25 11:53:49;;;;;;;;;;;15.90;66.80;;;;;;5032108;28;19928;-75
2024/02/25 11:56:15;;;;;;;;;;;15.80;66.70;;;;;;5032182;28;19918;-79
2024/02/25 11:58:40;;;;;;;;;;;15.90;67.00;;;;;;5032170;28;19914;-77
2024/02/25 12:01:06;;;;;;;;;;;15.80;67.10;;;;;;5031943;28;19916;-77
2024/02/25 12:03:31;;;;;;;;;;;15.80;67.10;;;;;;5032184;28;19916;-75
2024/02/25 12:05:57;;;;;;;;;;;15.70;67.10;;;;;;5032075;28;19913;-75
2024/02/25 12:08:22;;;;;;;;;;;15.70;67.40;;;;;;5014592;28;19909;-76
2024/02/25 12:10:49;;;;;;;;;;;15.70;67.40;;;;;;5032536;28;19932;-75
2024/02/25 12:13:14;;;;;;;;;;;15.80;67.20;;;;;;5032056;28;19988;-74
2024/02/25 12:15:42;;;;;;;;;;;15.80;66.90;;;;;;4997841;28;20390;-75
2024/02/25 12:18:08;;;;;;;;;;;15.90;67.50;;;;;;5032207;28;19913;-80
2024/02/25 12:20:34;;;;;;;;;;;15.80;67.30;;;;;;5032065;28;19917;-77
2024/02/25 12:23:00;;;;;;;;;;;15.80;67.10;;;;;;5034461;28;19986;-77
2024/02/25 12:25:26;;;;;;;;;;;15.80;67.30;;;;;;5036010;28;19909;-77
2024/02/25 12:28:05;;;;;;;;;;;15.80;67.30;;;;;;5035828;28;19915;-75
2024/02/25 12:30:34;;;;;;;;;;;;;;;;;;5042423;28;19909;-80
2024/02/25 12:33:01;;;;;;;;;;;15.80;62.60;;;;;;5035768;28;19909;-76
2024/02/25 12:35:27;;;;;;;;;;;15.70;67.60;;;;;;5035891;28;19909;-76
2024/02/25 12:37:53;;;;;;;;;;;15.70;67.60;;;;;;5035688;28;19936;-74
2024/02/25 12:40:18;;;;;;;;;;;15.70;67.60;;;;;;5036239;28;19936;-74
2024/02/25 12:42:48;;;;;;;;;;;15.80;67.10;;;;;;5035226;28;19921;-75
2024/02/25 12:45:13;;;;;;;;;;;15.70;67.40;;;;;;5035658;28;19996;-77
2024/02/25 12:47:39;;;;;;;;;;;15.70;67.20;;;;;;5035374;28;19995;-76
2024/02/25 12:50:05;;;;;;;;;;;15.80;67.40;;;;;;5035470;28;19963;-76
2024/02/25 12:52:30;;;;;;;;;;;15.70;65.70;;;;;;5035085;28;19909;-76
2024/02/25 12:54:56;;;;;;;;;;;15.70;67.30;;;;;;5035142;28;19915;-77
2024/02/25 12:57:22;;;;;;;;;;;15.70;67.40;;;;;;5035285;28;19939;-76
2024/02/25 12:59:48;;;;;;;;;;;15.70;67.50;;;;;;5035120;28;19913;-84
2024/02/25 13:02:14;;;;;;;;;;;15.70;67.50;;;;;;5035537;28;20009;-81
2024/02/25 13:04:40;;;;;;;;;;;15.70;67.60;;;;;;5035438;28;20260;-80
2024/02/25 13:07:06;;;;;;;;;;;16.20;67.50;;;;;;5035476;28;20012;-82
2024/02/25 13:09:32;;;;;;;;;;;15.90;67.30;;;;;;5035368;28;19909;-82
2024/02/25 13:12:01;;;;;;;;;;;16.00;66.90;;;;;;5035247;28;20382;-81
2024/02/25 13:14:27;;;;;;;;;;;16.00;66.20;;;;;;5018207;28;19936;-82
2024/02/25 13:16:54;;;;;;;;;;;16.20;66.40;;;;;;5034888;28;20436;-81
2024/02/25 13:19:19;;;;;;;;;;;16.20;66.20;;;;;;5034919;28;20221;-82
2024/02/25 13:21:45;;;;;;;;;;;16.20;66.40;;;;;;5016968;28;19924;-82
2024/02/25 13:24:10;;;;;;;;;;;16.20;66.60;;;;;;5034781;28;19910;-81
2024/02/25 13:26:36;;;;;;;;;;;16.20;66.20;;;;;;5035308;28;20071;-82
2024/02/25 13:29:02;;;;;;;;;;;16.40;66.10;;;;;;5034640;28;19909;-82
2024/02/25 13:31:28;;;;;;;;;;;16.30;66.10;;;;;;5034702;28;19913;-81
2024/02/25 13:33:53;;;;;;;;;;;16.40;65.80;;;;;;5033892;28;20398;-83
2024/02/25 13:36:22;;;;;;;;;;;16.30;65.90;;;;;;5034661;28;19955;-82
2024/02/25 13:38:50;;;;;;;;;;;16.30;66.10;;;;;;5034631;28;19909;-82
2024/02/25 13:41:16;;;;;;;;;;;16.30;66.30;;;;;;5034596;28;19917;-82
2024/02/25 13:43:43;;;;;;;;;;;16.20;66.10;;;;;;5034032;28;19927;-82
2024/02/25 13:46:10;;;;;;;;;;;16.30;66.40;;;;;;5016572;28;20382;-82
2024/02/25 13:48:36;;;;;;;;;;;16.20;66.60;;;;;;5034327;28;19931;-82
2024/02/25 13:51:01;;;;;;;;;;;16.20;66.90;;;;;;5016371;28;20446;-80
2024/02/25 13:53:27;;;;;;;;;;;16.10;66.90;;;;;;5034563;28;19909;-81
2024/02/25 13:55:52;;;;;;;;;;;16.40;66.90;;;;;;5034692;28;19921;-82
2024/02/25 13:58:18;;;;;;;;;;;16.10;67.20;;;;;;5034000;28;19963;-82
2024/02/25 14:00:43;;;;;;;;;;;16.10;67.30;;;;;;5034132;28;20433;-83
2024/02/25 14:03:09;;;;;;;;;;;16.00;67.00;;;;;;5033948;28;20461;-81
2024/02/25 14:05:36;;;;;;;;;;;16.00;67.10;;;;;;5033801;28;19940;-81
2024/02/25 14:08:02;;;;;;;;;;;16.00;67.30;;;;;;5033808;28;20284;-83
2024/02/25 14:10:29;;;;;;;;;;;16.40;67.10;;;;;;5033766;28;19920;-83
2024/02/25 14:12:54;;;;;;;;;;;16.00;67.80;;;;;;5034011;28;20291;-80